sensor_id;sensor_type;location;lat;lon;timestamp;temperature;humidity
58554;DHT22;48119;53.218;6.576;2024-01-25T00:02:23;10.90;99.90
58554;DHT22;48119;53.218;6.576;2024-01-25T00:04:49;10.90;99.90
58554;DHT22;48119;53.218;6.576;2024-01-25T00:07:14;10.90;99.90
58554;DHT22;48119;53.218;6.576;2024-01-25T00:09:40;10.90;99.90
58554;DHT22;48119;53.218;6.576;2024-01-25T00:12:06;10.90;99.90
58554;DHT22;48119;53.218;6.576;2024-01-25T00:14:32;10.90;99.90
58554;DHT22;48119;53.218;6.576;2024-01-25T00:16:57;10.90;99.90
58554;DHT22;48119;53.218;6.576;2024-01-25T00:19:23;10.90;99.90
58554;DHT22;48119;53.218;6.576;2024-01-25T00:21:49;10.80;99.90
58554;DHT22;48119;53.218;6.576;2024-01-25T00:24:15;10.80;99.90
58554;DHT22;48119;53.218;6.576;2024-01-25T00:26:40;10.80;99.90
58554;DHT22;48119;53.218;6.576;2024-01-25T00:29:06;10.80;99.90
58554;DHT22;48119;53.218;6.576;2024-01-25T00:31:32;10.80;99.90
58554;DHT22;48119;53.218;6.576;2024-01-25T00:33:58;10.80;99.90
58554;DHT22;48119;53.218;6.576;2024-01-25T00:36:26;10.80;99.90
58554;DHT22;48119;53.218;6.576;2024-01-25T00:38:52;10.80;99.90
58554;DHT22;48119;53.218;6.576;2024-01-25T00:41:18;10.80;99.90
58554;DHT22;48119;53.218;6.576;2024-01-25T00:43:45;10.80;99.90
58554;DHT22;48119;53.218;6.576;2024-01-25T00:46:11;10.80;99.90
58554;DHT22;48119;53.218;6.576;2024-01-25T00:48:37;10.80;99.90
58554;DHT22;48119;53.218;6.576;2024-01-25T00:51:07;10.70;99.90
58554;DHT22;48119;53.218;6.576;2024-01-25T00:53:33;10.70;99.90
58554;DHT22;48119;53.218;6.576;2024-01-25T00:55:59;10.70;99.90
58554;DHT22;48119;53.218;6.576;2024-01-25T00:58:25;10.70;99.90
58554;DHT22;48119;53.218;6.576;2024-01-25T01:00:51;10.70;99.90
58554;DHT22;48119;53.218;6.576;2024-01-25T01:03:18;10.70;99.90
58554;DHT22;48119;53.218;6.576;2024-01-25T01:05:45;10.70;99.90
58554;DHT22;48119;53.218;6.576;2024-01-25T01:08:12;10.70;99.90
58554;DHT22;48119;53.218;6.576;2024-01-25T01:10:37;10.60;99.90
58554;DHT22;48119;53.218;6.576;2024-01-25T01:13:03;10.60;99.90
58554;DHT22;48119;53.218;6.576;2024-01-25T01:15:29;10.60;99.90
58554;DHT22;48119;53.218;6.576;2024-01-25T01:17:55;10.60;99.90
58554;DHT22;48119;53.218;6.576;2024-01-25T01:20:20;10.60;99.90
58554;DHT22;48119;53.218;6.576;2024-01-25T01:22:46;10.50;99.90
58554;DHT22;48119;53.218;6.576;2024-01-25T01:25:12;10.50;99.90
58554;DHT22;48119;53.218;6.576;2024-01-25T01:27:37;10.50;99.90
58554;DHT22;48119;53.218;6.576;2024-01-25T01:30:04;10.50;99.90
58554;DHT22;48119;53.218;6.576;2024-01-25T01:32:29;10.50;99.90
58554;DHT22;48119;53.218;6.576;2024-01-25T01:34:55;10.60;99.90
58554;DHT22;48119;53.218;6.576;2024-01-25T01:37:21;10.60;99.90
58554;DHT22;48119;53.218;6.576;2024-01-25T01:39:46;10.60;99.90
58554;DHT22;48119;53.218;6.576;2024-01-25T01:42:12;10.50;99.90
58554;DHT22;48119;53.218;6.576;2024-01-25T01:44:39;10.60;99.90
58554;DHT22;48119;53.218;6.576;2024-01-25T01:47:05;10.60;99.90
58554;DHT22;48119;53.218;6.576;2024-01-25T01:49:31;10.50;99.90
58554;DHT22;48119;53.218;6.576;2024-01-25T01:51:57;10.50;99.90
58554;DHT22;48119;53.218;6.576;2024-01-25T01:54:23;10.50;99.90
58554;DHT22;48119;53.218;6.576;2024-01-25T01:56:50;10.50;99.90
58554;DHT22;48119;53.218;6.576;2024-01-25T01:59:16;10.50;99.90
58554;DHT22;48119;53.218;6.576;2024-01-25T02:01:41;10.50;99.90
58554;DHT22;48119;53.218;6.576;2024-01-25T02:04:07;10.50;99.90
58554;DHT22;48119;53.218;6.576;2024-01-25T02:06:33;10.50;99.90
58554;DHT22;48119;53.218;6.576;2024-01-25T02:08:59;10.50;99.90
58554;DHT22;48119;53.218;6.576;2024-01-25T02:11:26;10.50;99.90
58554;DHT22;48119;53.218;6.576;2024-01-25T02:13:56;10.50;99.90
58554;DHT22;48119;53.218;6.576;2024-01-25T02:16:31;10.50;99.90
58554;DHT22;48119;53.218;6.576;2024-01-25T02:18:56;10.50;99.90
58554;DHT22;48119;53.218;6.576;2024-01-25T02:21:25;10.50;99.90
58554;DHT22;48119;53.218;6.576;2024-01-25T02:23:51;10.50;99.90
58554;DHT22;48119;53.218;6.576;2024-01-25T02:26:16;10.50;99.90
58554;DHT22;48119;53.218;6.576;2024-01-25T02:28:42;10.50;99.90
58554;DHT22;48119;53.218;6.576;2024-01-25T02:31:08;10.50;99.90
58554;DHT22;48119;53.218;6.576;2024-01-25T02:33:36;10.40;99.90
58554;DHT22;48119;53.218;6.576;2024-01-25T02:36:02;10.40;99.90
58554;DHT22;48119;53.218;6.576;2024-01-25T02:38:28;10.40;99.90
58554;DHT22;48119;53.218;6.576;2024-01-25T02:40:54;10.40;99.90
58554;DHT22;48119;53.218;6.576;2024-01-25T02:43:19;10.40;99.90
58554;DHT22;48119;53.218;6.576;2024-01-25T02:45:45;10.40;99.90
58554;DHT22;48119;53.218;6.576;2024-01-25T02:48:11;10.40;99.90
58554;DHT22;48119;53.218;6.576;2024-01-25T02:50:37;10.40;99.90
58554;DHT22;48119;53.218;6.576;2024-01-25T02:53:03;10.40;99.90
58554;DHT22;48119;53.218;6.576;2024-01-25T02:55:29;10.30;99.90
58554;DHT22;48119;53.218;6.576;2024-01-25T02:57:54;10.30;99.90
58554;DHT22;48119;53.218;6.576;2024-01-25T03:00:20;10.30;99.90
58554;DHT22;48119;53.218;6.576;2024-01-25T03:02:46;10.30;99.90
58554;DHT22;48119;53.218;6.576;2024-01-25T03:05:12;10.30;99.90
58554;DHT22;48119;53.218;6.576;2024-01-25T03:07:38;10.30;99.90
58554;DHT22;48119;53.218;6.576;2024-01-25T03:10:04;10.30;99.90
58554;DHT22;48119;53.218;6.576;2024-01-25T03:12:30;10.20;99.90
58554;DHT22;48119;53.218;6.576;2024-01-25T03:14:56;10.20;99.90
58554;DHT22;48119;53.218;6.576;2024-01-25T03:17:22;10.20;99.90
58554;DHT22;48119;53.218;6.576;2024-01-25T03:19:47;10.20;99.90
58554;DHT22;48119;53.218;6.576;2024-01-25T03:22:13;10.20;99.90
58554;DHT22;48119;53.218;6.576;2024-01-25T03:24:39;10.10;99.90
58554;DHT22;48119;53.218;6.576;2024-01-25T03:27:05;10.20;99.90
58554;DHT22;48119;53.218;6.576;2024-01-25T03:29:31;10.10;99.90
58554;DHT22;48119;53.218;6.576;2024-01-25T03:31:57;10.20;99.90
58554;DHT22;48119;53.218;6.576;2024-01-25T03:34:22;10.20;99.90
58554;DHT22;48119;53.218;6.576;2024-01-25T03:36:48;10.10;99.90
58554;DHT22;48119;53.218;6.576;2024-01-25T03:39:15;10.20;99.90
58554;DHT22;48119;53.218;6.576;2024-01-25T03:41:43;10.10;99.90
58554;DHT22;48119;53.218;6.576;2024-01-25T03:44:08;10.10;99.90
58554;DHT22;48119;53.218;6.576;2024-01-25T03:46:34;10.10;99.90
58554;DHT22;48119;53.218;6.576;2024-01-25T03:49:00;10.10;99.90
58554;DHT22;48119;53.218;6.576;2024-01-25T03:51:25;10.10;99.90
58554;DHT22;48119;53.218;6.576;2024-01-25T03:53:52;10.10;99.90
58554;DHT22;48119;53.218;6.576;2024-01-25T03:56:18;10.00;99.90
58554;DHT22;48119;53.218;6.576;2024-01-25T03:58:44;10.00;99.90
58554;DHT22;48119;53.218;6.576;2024-01-25T04:01:11;10.00;99.90
58554;DHT22;48119;53.218;6.576;2024-01-25T04:03:36;10.00;99.90
58554;DHT22;48119;53.218;6.576;2024-01-25T04:06:02;10.10;99.90
58554;DHT22;48119;53.218;6.576;2024-01-25T04:08:28;10.10;99.90
58554;DHT22;48119;53.218;6.576;2024-01-25T04:10:53;10.00;99.90
58554;DHT22;48119;53.218;6.576;2024-01-25T04:13:19;10.00;99.90
58554;DHT22;48119;53.218;6.576;2024-01-25T04:15:45;10.00;99.90
58554;DHT22;48119;53.218;6.576;2024-01-25T04:18:11;10.00;99.90
58554;DHT22;48119;53.218;6.576;2024-01-25T04:20:37;10.00;99.90
58554;DHT22;48119;53.218;6.576;2024-01-25T04:23:02;10.00;99.90
58554;DHT22;48119;53.218;6.576;2024-01-25T04:25:28;10.00;99.90
58554;DHT22;48119;53.218;6.576;2024-01-25T04:27:54;9.90;99.90
58554;DHT22;48119;53.218;6.576;2024-01-25T04:30:20;9.90;99.90
58554;DHT22;48119;53.218;6.576;2024-01-25T04:32:46;9.90;99.90
58554;DHT22;48119;53.218;6.576;2024-01-25T04:35:11;9.90;99.90
58554;DHT22;48119;53.218;6.576;2024-01-25T04:37:37;9.90;99.90
58554;DHT22;48119;53.218;6.576;2024-01-25T04:40:03;9.90;99.90
58554;DHT22;48119;53.218;6.576;2024-01-25T04:42:30;9.90;99.90
58554;DHT22;48119;53.218;6.576;2024-01-25T04:44:56;9.90;99.90
58554;DHT22;48119;53.218;6.576;2024-01-25T04:47:22;9.90;99.90
58554;DHT22;48119;53.218;6.576;2024-01-25T04:49:48;9.90;99.90
58554;DHT22;48119;53.218;6.576;2024-01-25T04:52:14;9.90;99.90
58554;DHT22;48119;53.218;6.576;2024-01-25T04:54:39;9.90;99.90
58554;DHT22;48119;53.218;6.576;2024-01-25T04:57:05;9.80;99.90
58554;DHT22;48119;53.218;6.576;2024-01-25T04:59:35;9.90;99.90
58554;DHT22;48119;53.218;6.576;2024-01-25T05:02:01;9.80;99.90
58554;DHT22;48119;53.218;6.576;2024-01-25T05:04:29;9.80;99.90
58554;DHT22;48119;53.218;6.576;2024-01-25T05:06:56;9.90;99.90
58554;DHT22;48119;53.218;6.576;2024-01-25T05:09:21;9.90;99.90
58554;DHT22;48119;53.218;6.576;2024-01-25T05:11:47;9.90;99.90
58554;DHT22;48119;53.218;6.576;2024-01-25T05:14:13;9.90;99.90
58554;DHT22;48119;53.218;6.576;2024-01-25T05:16:39;9.90;99.90
58554;DHT22;48119;53.218;6.576;2024-01-25T05:19:04;9.80;99.90
58554;DHT22;48119;53.218;6.576;2024-01-25T05:21:31;9.80;99.90
58554;DHT22;48119;53.218;6.576;2024-01-25T05:23:56;9.80;99.90
58554;DHT22;48119;53.218;6.576;2024-01-25T05:26:22;9.90;99.90
58554;DHT22;48119;53.218;6.576;2024-01-25T05:28:48;9.80;99.90
58554;DHT22;48119;53.218;6.576;2024-01-25T05:31:14;9.80;99.90
58554;DHT22;48119;53.218;6.576;2024-01-25T05:33:41;9.80;99.90
58554;DHT22;48119;53.218;6.576;2024-01-25T05:36:09;9.80;99.90
58554;DHT22;48119;53.218;6.576;2024-01-25T05:38:35;9.80;99.90
58554;DHT22;48119;53.218;6.576;2024-01-25T05:41:01;9.80;99.90
58554;DHT22;48119;53.218;6.576;2024-01-25T05:43:27;9.80;99.90
58554;DHT22;48119;53.218;6.576;2024-01-25T05:45:53;9.70;99.90
58554;DHT22;48119;53.218;6.576;2024-01-25T05:48:19;9.80;99.90
58554;DHT22;48119;53.218;6.576;2024-01-25T05:50:45;9.70;99.90
58554;DHT22;48119;53.218;6.576;2024-01-25T05:53:10;9.70;99.90
58554;DHT22;48119;53.218;6.576;2024-01-25T05:55:36;9.70;99.90
58554;DHT22;48119;53.218;6.576;2024-01-25T05:58:02;9.70;99.90
58554;DHT22;48119;53.218;6.576;2024-01-25T06:00:28;9.70;99.90
58554;DHT22;48119;53.218;6.576;2024-01-25T06:02:54;9.70;99.90
58554;DHT22;48119;53.218;6.576;2024-01-25T06:05:20;9.70;99.90
58554;DHT22;48119;53.218;6.576;2024-01-25T06:07:45;9.70;99.90
58554;DHT22;48119;53.218;6.576;2024-01-25T06:10:11;9.70;99.90
58554;DHT22;48119;53.218;6.576;2024-01-25T06:12:37;9.70;99.90
58554;DHT22;48119;53.218;6.576;2024-01-25T06:15:03;9.70;99.90
58554;DHT22;48119;53.218;6.576;2024-01-25T06:17:30;9.70;99.90
58554;DHT22;48119;53.218;6.576;2024-01-25T06:19:56;9.70;99.90
58554;DHT22;48119;53.218;6.576;2024-01-25T06:22:21;9.70;99.90
58554;DHT22;48119;53.218;6.576;2024-01-25T06:24:47;9.70;99.90
58554;DHT22;48119;53.218;6.576;2024-01-25T06:27:13;9.60;99.90
58554;DHT22;48119;53.218;6.576;2024-01-25T06:29:39;9.60;99.90
58554;DHT22;48119;53.218;6.576;2024-01-25T06:32:05;9.70;99.90
58554;DHT22;48119;53.218;6.576;2024-01-25T06:34:32;9.70;99.90
58554;DHT22;48119;53.218;6.576;2024-01-25T06:36:58;9.70;99.90
58554;DHT22;48119;53.218;6.576;2024-01-25T06:39:23;9.60;99.90
58554;DHT22;48119;53.218;6.576;2024-01-25T06:41:49;9.60;99.90
58554;DHT22;48119;53.218;6.576;2024-01-25T06:44:15;9.60;99.90
58554;DHT22;48119;53.218;6.576;2024-01-25T06:46:42;9.60;99.90
58554;DHT22;48119;53.218;6.576;2024-01-25T06:49:08;9.50;99.90
58554;DHT22;48119;53.218;6.576;2024-01-25T06:51:34;9.60;99.90
58554;DHT22;48119;53.218;6.576;2024-01-25T06:54:00;9.50;99.90
58554;DHT22;48119;53.218;6.576;2024-01-25T06:56:25;9.50;99.90
58554;DHT22;48119;53.218;6.576;2024-01-25T06:58:51;9.50;99.90
58554;DHT22;48119;53.218;6.576;2024-01-25T07:01:21;9.50;99.90
58554;DHT22;48119;53.218;6.576;2024-01-25T07:03:47;9.40;99.90
58554;DHT22;48119;53.218;6.576;2024-01-25T07:06:13;9.50;99.90
58554;DHT22;48119;53.218;6.576;2024-01-25T07:08:39;9.40;99.90
58554;DHT22;48119;53.218;6.576;2024-01-25T07:11:04;9.40;99.90
58554;DHT22;48119;53.218;6.576;2024-01-25T07:13:30;9.40;99.90
58554;DHT22;48119;53.218;6.576;2024-01-25T07:15:56;9.40;99.90
58554;DHT22;48119;53.218;6.576;2024-01-25T07:18:22;9.40;99.90
58554;DHT22;48119;53.218;6.576;2024-01-25T07:20:50;9.40;99.90
58554;DHT22;48119;53.218;6.576;2024-01-25T07:23:16;9.40;99.90
58554;DHT22;48119;53.218;6.576;2024-01-25T07:25:42;9.40;99.90
58554;DHT22;48119;53.218;6.576;2024-01-25T07:28:08;9.40;99.90
58554;DHT22;48119;53.218;6.576;2024-01-25T07:30:34;9.30;99.90
58554;DHT22;48119;53.218;6.576;2024-01-25T07:32:59;9.30;99.90
58554;DHT22;48119;53.218;6.576;2024-01-25T07:35:25;9.30;99.90
58554;DHT22;48119;53.218;6.576;2024-01-25T07:37:51;9.30;99.90
58554;DHT22;48119;53.218;6.576;2024-01-25T07:40:17;9.30;99.90
58554;DHT22;48119;53.218;6.576;2024-01-25T07:42:42;9.30;99.90
58554;DHT22;48119;53.218;6.576;2024-01-25T07:45:09;9.30;99.90
58554;DHT22;48119;53.218;6.576;2024-01-25T07:47:35;9.30;99.90
58554;DHT22;48119;53.218;6.576;2024-01-25T07:50:01;9.30;99.90
58554;DHT22;48119;53.218;6.576;2024-01-25T07:52:26;9.30;99.90
58554;DHT22;48119;53.218;6.576;2024-01-25T07:54:52;9.30;99.90
58554;DHT22;48119;53.218;6.576;2024-01-25T07:57:19;9.30;99.90
58554;DHT22;48119;53.218;6.576;2024-01-25T07:59:45;9.30;99.90
58554;DHT22;48119;53.218;6.576;2024-01-25T08:02:10;9.30;99.90
58554;DHT22;48119;53.218;6.576;2024-01-25T08:04:36;9.20;99.90
58554;DHT22;48119;53.218;6.576;2024-01-25T08:07:02;9.30;99.90
58554;DHT22;48119;53.218;6.576;2024-01-25T08:09:28;9.20;99.90
58554;DHT22;48119;53.218;6.576;2024-01-25T08:11:54;9.20;99.90
58554;DHT22;48119;53.218;6.576;2024-01-25T08:14:20;9.20;99.90
58554;DHT22;48119;53.218;6.576;2024-01-25T08:16:45;9.20;99.90
58554;DHT22;48119;53.218;6.576;2024-01-25T08:19:11;9.20;99.90
58554;DHT22;48119;53.218;6.576;2024-01-25T08:21:37;9.20;99.90
58554;DHT22;48119;53.218;6.576;2024-01-25T08:24:03;9.10;99.90
58554;DHT22;48119;53.218;6.576;2024-01-25T08:26:29;9.20;99.90
58554;DHT22;48119;53.218;6.576;2024-01-25T08:28:55;9.10;99.90
58554;DHT22;48119;53.218;6.576;2024-01-25T08:31:21;9.20;99.90
58554;DHT22;48119;53.218;6.576;2024-01-25T08:33:46;9.10;99.90
58554;DHT22;48119;53.218;6.576;2024-01-25T08:36:16;9.10;99.90
58554;DHT22;48119;53.218;6.576;2024-01-25T08:38:42;9.10;99.90
58554;DHT22;48119;53.218;6.576;2024-01-25T08:41:08;9.10;99.90
58554;DHT22;48119;53.218;6.576;2024-01-25T08:43:34;9.10;99.90
58554;DHT22;48119;53.218;6.576;2024-01-25T08:46:00;9.10;99.90
58554;DHT22;48119;53.218;6.576;2024-01-25T08:48:27;9.10;99.90
58554;DHT22;48119;53.218;6.576;2024-01-25T08:50:53;9.20;99.90
58554;DHT22;48119;53.218;6.576;2024-01-25T08:53:20;9.20;99.90
58554;DHT22;48119;53.218;6.576;2024-01-25T08:55:55;9.20;99.90
58554;DHT22;48119;53.218;6.576;2024-01-25T08:58:22;9.20;99.90
58554;DHT22;48119;53.218;6.576;2024-01-25T09:00:47;9.30;99.90
58554;DHT22;48119;53.218;6.576;2024-01-25T09:03:16;9.30;99.90
58554;DHT22;48119;53.218;6.576;2024-01-25T09:05:42;9.30;99.90
58554;DHT22;48119;53.218;6.576;2024-01-25T09:08:12;9.30;99.90
58554;DHT22;48119;53.218;6.576;2024-01-25T09:10:38;9.30;99.90
58554;DHT22;48119;53.218;6.576;2024-01-25T09:13:04;9.30;99.90
58554;DHT22;48119;53.218;6.576;2024-01-25T09:15:30;9.30;99.90
58554;DHT22;48119;53.218;6.576;2024-01-25T09:17:56;9.40;99.90
58554;DHT22;48119;53.218;6.576;2024-01-25T09:20:21;9.30;99.90
58554;DHT22;48119;53.218;6.576;2024-01-25T09:22:47;9.30;99.90
58554;DHT22;48119;53.218;6.576;2024-01-25T09:25:13;9.30;99.90
58554;DHT22;48119;53.218;6.576;2024-01-25T09:27:39;9.40;99.90
58554;DHT22;48119;53.218;6.576;2024-01-25T09:30:05;9.30;99.90
58554;DHT22;48119;53.218;6.576;2024-01-25T09:32:31;9.40;99.90
58554;DHT22;48119;53.218;6.576;2024-01-25T09:34:57;9.40;99.90
58554;DHT22;48119;53.218;6.576;2024-01-25T09:37:23;9.40;99.90
58554;DHT22;48119;53.218;6.576;2024-01-25T09:39:50;9.40;99.90
58554;DHT22;48119;53.218;6.576;2024-01-25T09:42:17;9.40;99.90
58554;DHT22;48119;53.218;6.576;2024-01-25T09:44:44;9.50;99.90
58554;DHT22;48119;53.218;6.576;2024-01-25T09:47:10;9.50;99.90
58554;DHT22;48119;53.218;6.576;2024-01-25T09:49:36;9.50;99.90
58554;DHT22;48119;53.218;6.576;2024-01-25T09:52:03;9.50;99.90
58554;DHT22;48119;53.218;6.576;2024-01-25T09:54:36;9.50;99.90
58554;DHT22;48119;53.218;6.576;2024-01-25T09:57:06;9.50;99.90
58554;DHT22;48119;53.218;6.576;2024-01-25T09:59:32;9.50;99.90
58554;DHT22;48119;53.218;6.576;2024-01-25T10:01:59;9.50;99.90
58554;DHT22;48119;53.218;6.576;2024-01-25T10:04:26;9.50;99.90
58554;DHT22;48119;53.218;6.576;2024-01-25T10:06:55;9.50;99.90
58554;DHT22;48119;53.218;6.576;2024-01-25T10:09:22;9.50;99.90
58554;DHT22;48119;53.218;6.576;2024-01-25T10:11:48;9.60;99.90
58554;DHT22;48119;53.218;6.576;2024-01-25T10:14:14;9.60;99.90
58554;DHT22;48119;53.218;6.576;2024-01-25T10:16:40;9.60;99.90
58554;DHT22;48119;53.218;6.576;2024-01-25T10:19:09;9.60;99.90
58554;DHT22;48119;53.218;6.576;2024-01-25T10:21:36;9.70;99.90
58554;DHT22;48119;53.218;6.576;2024-01-25T10:24:01;9.70;99.90
58554;DHT22;48119;53.218;6.576;2024-01-25T10:26:28;9.70;99.90
58554;DHT22;48119;53.218;6.576;2024-01-25T10:28:54;9.70;99.90
58554;DHT22;48119;53.218;6.576;2024-01-25T10:31:23;9.70;99.90
58554;DHT22;48119;53.218;6.576;2024-01-25T10:33:52;9.70;99.90
58554;DHT22;48119;53.218;6.576;2024-01-25T10:36:20;9.80;99.90
58554;DHT22;48119;53.218;6.576;2024-01-25T10:38:48;9.70;99.90
58554;DHT22;48119;53.218;6.576;2024-01-25T10:44:55;9.70;99.90
58554;DHT22;48119;53.218;6.576;2024-01-25T10:47:21;9.70;99.90
58554;DHT22;48119;53.218;6.576;2024-01-25T10:49:48;9.80;99.90
58554;DHT22;48119;53.218;6.576;2024-01-25T10:52:15;9.80;99.90
58554;DHT22;48119;53.218;6.576;2024-01-25T10:54:41;9.80;99.90
58554;DHT22;48119;53.218;6.576;2024-01-25T10:57:07;9.80;99.90
58554;DHT22;48119;53.218;6.576;2024-01-25T10:59:34;9.80;99.90
58554;DHT22;48119;53.218;6.576;2024-01-25T11:02:01;9.80;99.90
58554;DHT22;48119;53.218;6.576;2024-01-25T11:04:27;9.90;99.90
58554;DHT22;48119;53.218;6.576;2024-01-25T11:07:07;9.90;99.90
58554;DHT22;48119;53.218;6.576;2024-01-25T11:09:37;9.90;99.90
58554;DHT22;48119;53.218;6.576;2024-01-25T11:12:13;10.00;99.90
58554;DHT22;48119;53.218;6.576;2024-01-25T11:14:39;10.00;99.90
58554;DHT22;48119;53.218;6.576;2024-01-25T11:17:18;10.00;99.90
58554;DHT22;48119;53.218;6.576;2024-01-25T11:19:44;10.00;99.90
58554;DHT22;48119;53.218;6.576;2024-01-25T11:22:11;10.00;99.90
58554;DHT22;48119;53.218;6.576;2024-01-25T11:24:38;10.10;99.90
58554;DHT22;48119;53.218;6.576;2024-01-25T11:27:09;10.10;99.90
58554;DHT22;48119;53.218;6.576;2024-01-25T11:29:36;10.10;99.90
58554;DHT22;48119;53.218;6.576;2024-01-25T11:32:04;10.10;99.90
58554;DHT22;48119;53.218;6.576;2024-01-25T11:34:30;10.10;99.90
58554;DHT22;48119;53.218;6.576;2024-01-25T11:36:57;10.10;99.90
58554;DHT22;48119;53.218;6.576;2024-01-25T11:39:27;10.10;99.90
58554;DHT22;48119;53.218;6.576;2024-01-25T11:41:53;10.10;99.90
58554;DHT22;48119;53.218;6.576;2024-01-25T11:44:19;10.20;99.90
58554;DHT22;48119;53.218;6.576;2024-01-25T11:46:48;10.20;99.90
58554;DHT22;48119;53.218;6.576;2024-01-25T11:49:14;10.20;99.90
58554;DHT22;48119;53.218;6.576;2024-01-25T11:51:39;10.20;99.90
58554;DHT22;48119;53.218;6.576;2024-01-25T11:54:05;10.20;99.90
58554;DHT22;48119;53.218;6.576;2024-01-25T11:56:34;10.30;99.90
58554;DHT22;48119;53.218;6.576;2024-01-25T11:59:01;10.20;99.90
58554;DHT22;48119;53.218;6.576;2024-01-25T12:01:28;10.20;99.90
58554;DHT22;48119;53.218;6.576;2024-01-25T12:03:55;10.20;99.90
58554;DHT22;48119;53.218;6.576;2024-01-25T12:06:21;10.20;99.90
58554;DHT22;48119;53.218;6.576;2024-01-25T12:08:47;10.20;99.90
58554;DHT22;48119;53.218;6.576;2024-01-25T12:11:17;10.30;99.90
58554;DHT22;48119;53.218;6.576;2024-01-25T12:13:44;10.30;99.90
58554;DHT22;48119;53.218;6.576;2024-01-25T12:16:11;10.30;99.90
58554;DHT22;48119;53.218;6.576;2024-01-25T12:18:39;10.30;99.90
58554;DHT22;48119;53.218;6.576;2024-01-25T12:21:06;10.30;99.90
58554;DHT22;48119;53.218;6.576;2024-01-25T12:23:32;10.30;99.90
58554;DHT22;48119;53.218;6.576;2024-01-25T12:26:03;10.40;99.90
58554;DHT22;48119;53.218;6.576;2024-01-25T12:28:30;10.40;99.90
58554;DHT22;48119;53.218;6.576;2024-01-25T12:30:57;10.40;99.90
58554;DHT22;48119;53.218;6.576;2024-01-25T12:33:22;10.40;99.90
58554;DHT22;48119;53.218;6.576;2024-01-25T12:35:48;10.40;99.90
58554;DHT22;48119;53.218;6.576;2024-01-25T12:38:14;10.50;99.90
58554;DHT22;48119;53.218;6.576;2024-01-25T12:40:42;10.50;99.90
58554;DHT22;48119;53.218;6.576;2024-01-25T12:43:08;10.50;99.90
58554;DHT22;48119;53.218;6.576;2024-01-25T12:45:34;10.50;99.90
58554;DHT22;48119;53.218;6.576;2024-01-25T12:48:00;10.50;99.90
58554;DHT22;48119;53.218;6.576;2024-01-25T12:50:28;10.60;99.90
58554;DHT22;48119;53.218;6.576;2024-01-25T12:52:54;10.50;99.90
58554;DHT22;48119;53.218;6.576;2024-01-25T12:55:20;10.60;99.90
58554;DHT22;48119;53.218;6.576;2024-01-25T12:57:45;10.60;99.90
58554;DHT22;48119;53.218;6.576;2024-01-25T13:00:12;10.60;99.90
58554;DHT22;48119;53.218;6.576;2024-01-25T13:02:40;10.60;99.90
58554;DHT22;48119;53.218;6.576;2024-01-25T13:05:06;10.60;99.90
58554;DHT22;48119;53.218;6.576;2024-01-25T13:07:37;10.60;99.90
58554;DHT22;48119;53.218;6.576;2024-01-25T13:10:04;10.60;99.90
58554;DHT22;48119;53.218;6.576;2024-01-25T13:12:29;10.60;99.90
58554;DHT22;48119;53.218;6.576;2024-01-25T13:14:55;10.60;99.90
58554;DHT22;48119;53.218;6.576;2024-01-25T13:17:21;10.60;99.90
58554;DHT22;48119;53.218;6.576;2024-01-25T13:19:48;10.60;99.90
58554;DHT22;48119;53.218;6.576;2024-01-25T13:22:14;10.60;99.90
58554;DHT22;48119;53.218;6.576;2024-01-25T13:24:42;10.60;99.90
58554;DHT22;48119;53.218;6.576;2024-01-25T13:27:09;10.60;99.90
58554;DHT22;48119;53.218;6.576;2024-01-25T13:29:34;10.70;99.90
58554;DHT22;48119;53.218;6.576;2024-01-25T13:32:00;10.70;99.90
58554;DHT22;48119;53.218;6.576;2024-01-25T13:34:26;10.70;99.90
58554;DHT22;48119;53.218;6.576;2024-01-25T13:36:52;10.70;99.90
58554;DHT22;48119;53.218;6.576;2024-01-25T13:39:18;10.70;99.90
58554;DHT22;48119;53.218;6.576;2024-01-25T13:41:43;10.70;99.90
58554;DHT22;48119;53.218;6.576;2024-01-25T13:44:13;10.70;99.90
58554;DHT22;48119;53.218;6.576;2024-01-25T13:46:39;10.70;99.90
58554;DHT22;48119;53.218;6.576;2024-01-25T13:49:05;10.70;99.90
58554;DHT22;48119;53.218;6.576;2024-01-25T13:51:30;10.70;99.90
58554;DHT22;48119;53.218;6.576;2024-01-25T13:53:56;10.70;99.90
58554;DHT22;48119;53.218;6.576;2024-01-25T13:56:22;10.70;99.90
58554;DHT22;48119;53.218;6.576;2024-01-25T13:58:48;10.70;99.90
58554;DHT22;48119;53.218;6.576;2024-01-25T14:01:14;10.70;99.90
58554;DHT22;48119;53.218;6.576;2024-01-25T14:03:40;10.80;99.90
58554;DHT22;48119;53.218;6.576;2024-01-25T14:06:05;10.80;99.90
58554;DHT22;48119;53.218;6.576;2024-01-25T14:08:35;10.80;99.90
58554;DHT22;48119;53.218;6.576;2024-01-25T14:11:01;10.80;99.90
58554;DHT22;48119;53.218;6.576;2024-01-25T14:13:27;10.80;99.90
58554;DHT22;48119;53.218;6.576;2024-01-25T14:15:53;10.90;99.90
58554;DHT22;48119;53.218;6.576;2024-01-25T14:18:19;10.80;99.90
58554;DHT22;48119;53.218;6.576;2024-01-25T14:20:45;10.80;99.90
58554;DHT22;48119;53.218;6.576;2024-01-25T14:23:10;10.80;99.90
58554;DHT22;48119;53.218;6.576;2024-01-25T14:25:36;10.80;99.90
58554;DHT22;48119;53.218;6.576;2024-01-25T14:28:02;10.80;99.90
58554;DHT22;48119;53.218;6.576;2024-01-25T14:30:28;10.80;99.90
58554;DHT22;48119;53.218;6.576;2024-01-25T14:32:55;10.80;99.90
58554;DHT22;48119;53.218;6.576;2024-01-25T14:35:22;10.80;99.90
58554;DHT22;48119;53.218;6.576;2024-01-25T14:37:57;10.80;99.90
58554;DHT22;48119;53.218;6.576;2024-01-25T14:40:24;10.80;99.90
58554;DHT22;48119;53.218;6.576;2024-01-25T14:42:49;10.80;99.90
58554;DHT22;48119;53.218;6.576;2024-01-25T14:45:15;10.80;99.90
58554;DHT22;48119;53.218;6.576;2024-01-25T14:47:41;10.80;99.90
58554;DHT22;48119;53.218;6.576;2024-01-25T14:50:07;10.80;99.90
58554;DHT22;48119;53.218;6.576;2024-01-25T14:52:33;10.80;99.90
58554;DHT22;48119;53.218;6.576;2024-01-25T14:55:03;10.80;99.90
58554;DHT22;48119;53.218;6.576;2024-01-25T14:57:30;10.80;99.90
58554;DHT22;48119;53.218;6.576;2024-01-25T14:59:56;10.80;99.90
58554;DHT22;48119;53.218;6.576;2024-01-25T15:02:22;10.80;99.90
58554;DHT22;48119;53.218;6.576;2024-01-25T15:04:48;10.80;99.90
58554;DHT22;48119;53.218;6.576;2024-01-25T15:07:14;10.70;99.90
58554;DHT22;48119;53.218;6.576;2024-01-25T15:09:41;10.70;99.90
58554;DHT22;48119;53.218;6.576;2024-01-25T15:12:08;10.70;99.90
58554;DHT22;48119;53.218;6.576;2024-01-25T15:14:34;10.70;99.90
58554;DHT22;48119;53.218;6.576;2024-01-25T15:16:59;10.70;99.90
58554;DHT22;48119;53.218;6.576;2024-01-25T15:19:25;10.70;99.90
58554;DHT22;48119;53.218;6.576;2024-01-25T15:21:51;10.70;99.90
58554;DHT22;48119;53.218;6.576;2024-01-25T15:24:17;10.70;99.90
58554;DHT22;48119;53.218;6.576;2024-01-25T15:26:43;10.70;99.90
58554;DHT22;48119;53.218;6.576;2024-01-25T15:29:09;10.70;99.90
58554;DHT22;48119;53.218;6.576;2024-01-25T15:31:34;10.70;99.90
58554;DHT22;48119;53.218;6.576;2024-01-25T15:34:00;10.70;99.90
58554;DHT22;48119;53.218;6.576;2024-01-25T15:36:26;10.70;99.90